sensor_id;sensor_type;location;lat;lon;timestamp;P1;durP1;ratioP1;P2;durP2;ratioP2
21170;SDS011;10743;52.160;20.910;2023-03-12T00:01:13;150.33;;;52.33;;
21170;SDS011;10743;52.160;20.910;2023-03-12T00:03:46;154.57;;;52.57;;
21170;SDS011;10743;52.160;20.910;2023-03-12T00:06:15;146.47;;;51.43;;
21170;SDS011;10743;52.160;20.910;2023-03-12T00:08:43;144.40;;;51.20;;
21170;SDS011;10743;52.160;20.910;2023-03-12T00:11:12;156.87;;;52.47;;
21170;SDS011;10743;52.160;20.910;2023-03-12T00:13:42;144.83;;;50.23;;
21170;SDS011;10743;52.160;20.910;2023-03-12T00:16:10;148.33;;;51.10;;
21170;SDS011;10743;52.160;20.910;2023-03-12T00:18:40;151.50;;;52.63;;
21170;SDS011;10743;52.160;20.910;2023-03-12T00:21:08;151.77;;;53.10;;
21170;SDS011;10743;52.160;20.910;2023-03-12T00:23:36;152.20;;;52.43;;
21170;SDS011;10743;52.160;20.910;2023-03-12T00:26:04;155.37;;;52.13;;
21170;SDS011;10743;52.160;20.910;2023-03-12T00:28:34;153.53;;;53.67;;
21170;SDS011;10743;52.160;20.910;2023-03-12T00:31:02;149.90;;;52.73;;
21170;SDS011;10743;52.160;20.910;2023-03-12T00:33:40;154.80;;;54.07;;
21170;SDS011;10743;52.160;20.910;2023-03-12T00:36:07;165.43;;;56.43;;
21170;SDS011;10743;52.160;20.910;2023-03-12T00:38:34;151.17;;;54.17;;
21170;SDS011;10743;52.160;20.910;2023-03-12T00:41:02;145.83;;;52.90;;
21170;SDS011;10743;52.160;20.910;2023-03-12T00:43:29;162.97;;;55.30;;
21170;SDS011;10743;52.160;20.910;2023-03-12T00:45:57;157.47;;;53.03;;
21170;SDS011;10743;52.160;20.910;2023-03-12T00:48:24;157.57;;;53.23;;
21170;SDS011;10743;52.160;20.910;2023-03-12T00:50:51;142.53;;;51.37;;
21170;SDS011;10743;52.160;20.910;2023-03-12T00:53:18;147.40;;;52.43;;
21170;SDS011;10743;52.160;20.910;2023-03-12T00:55:46;149.53;;;51.90;;
21170;SDS011;10743;52.160;20.910;2023-03-12T00:58:13;152.63;;;52.07;;
21170;SDS011;10743;52.160;20.910;2023-03-12T01:00:41;150.67;;;51.40;;
21170;SDS011;10743;52.160;20.910;2023-03-12T01:03:08;143.97;;;52.20;;
21170;SDS011;10743;52.160;20.910;2023-03-12T01:05:35;153.27;;;51.60;;
21170;SDS011;10743;52.160;20.910;2023-03-12T01:08:09;150.23;;;52.67;;
21170;SDS011;10743;52.160;20.910;2023-03-12T01:10:40;150.40;;;53.27;;
21170;SDS011;10743;52.160;20.910;2023-03-12T01:13:08;154.87;;;53.97;;
21170;SDS011;10743;52.160;20.910;2023-03-12T01:15:35;153.10;;;53.87;;
21170;SDS011;10743;52.160;20.910;2023-03-12T01:18:03;153.73;;;51.90;;
21170;SDS011;10743;52.160;20.910;2023-03-12T01:20:30;151.10;;;52.90;;
21170;SDS011;10743;52.160;20.910;2023-03-12T01:22:57;151.93;;;54.37;;
21170;SDS011;10743;52.160;20.910;2023-03-12T01:25:25;155.00;;;57.60;;
21170;SDS011;10743;52.160;20.910;2023-03-12T01:27:52;150.33;;;53.37;;
21170;SDS011;10743;52.160;20.910;2023-03-12T01:30:19;146.90;;;52.30;;
21170;SDS011;10743;52.160;20.910;2023-03-12T01:32:47;153.70;;;54.80;;
21170;SDS011;10743;52.160;20.910;2023-03-12T01:35:14;148.63;;;51.73;;
21170;SDS011;10743;52.160;20.910;2023-03-12T01:37:41;148.97;;;51.77;;
21170;SDS011;10743;52.160;20.910;2023-03-12T01:40:15;148.43;;;52.80;;
21170;SDS011;10743;52.160;20.910;2023-03-12T01:42:52;151.47;;;52.17;;
21170;SDS011;10743;52.160;20.910;2023-03-12T01:48:35;151.93;;;53.27;;
21170;SDS011;10743;52.160;20.910;2023-03-12T01:51:08;150.50;;;53.27;;
21170;SDS011;10743;52.160;20.910;2023-03-12T01:53:38;147.67;;;52.20;;
21170;SDS011;10743;52.160;20.910;2023-03-12T01:56:08;150.33;;;51.63;;
21170;SDS011;10743;52.160;20.910;2023-03-12T01:58:37;147.07;;;52.53;;
21170;SDS011;10743;52.160;20.910;2023-03-12T02:01:08;149.33;;;53.07;;
21170;SDS011;10743;52.160;20.910;2023-03-12T02:03:36;154.83;;;53.63;;
21170;SDS011;10743;52.160;20.910;2023-03-12T02:06:06;145.97;;;54.07;;
21170;SDS011;10743;52.160;20.910;2023-03-12T02:08:41;151.63;;;55.80;;
21170;SDS011;10743;52.160;20.910;2023-03-12T02:11:11;150.10;;;52.47;;
21170;SDS011;10743;52.160;20.910;2023-03-12T02:13:39;143.17;;;53.23;;
21170;SDS011;10743;52.160;20.910;2023-03-12T02:16:07;152.43;;;51.67;;
21170;SDS011;10743;52.160;20.910;2023-03-12T02:18:34;147.33;;;51.17;;
21170;SDS011;10743;52.160;20.910;2023-03-12T02:21:15;151.60;;;52.67;;
21170;SDS011;10743;52.160;20.910;2023-03-12T02:26:55;142.37;;;50.80;;
21170;SDS011;10743;52.160;20.910;2023-03-12T02:29:22;151.73;;;51.33;;
21170;SDS011;10743;52.160;20.910;2023-03-12T02:31:52;144.33;;;51.47;;
21170;SDS011;10743;52.160;20.910;2023-03-12T02:34:21;142.30;;;51.97;;
21170;SDS011;10743;52.160;20.910;2023-03-12T02:36:48;155.97;;;57.13;;
21170;SDS011;10743;52.160;20.910;2023-03-12T02:39:16;150.73;;;51.87;;
21170;SDS011;10743;52.160;20.910;2023-03-12T02:41:45;145.23;;;50.33;;
21170;SDS011;10743;52.160;20.910;2023-03-12T02:44:22;151.47;;;51.90;;
21170;SDS011;10743;52.160;20.910;2023-03-12T02:46:52;159.27;;;51.70;;
21170;SDS011;10743;52.160;20.910;2023-03-12T02:49:23;149.73;;;50.07;;
21170;SDS011;10743;52.160;20.910;2023-03-12T02:51:57;147.67;;;50.97;;
21170;SDS011;10743;52.160;20.910;2023-03-12T02:54:25;154.27;;;50.50;;
21170;SDS011;10743;52.160;20.910;2023-03-12T02:56:52;151.13;;;51.20;;
21170;SDS011;10743;52.160;20.910;2023-03-12T02:59:20;151.93;;;51.67;;
21170;SDS011;10743;52.160;20.910;2023-03-12T03:01:54;150.37;;;50.83;;
21170;SDS011;10743;52.160;20.910;2023-03-12T03:04:24;154.57;;;51.57;;
21170;SDS011;10743;52.160;20.910;2023-03-12T03:06:53;149.60;;;49.83;;
21170;SDS011;10743;52.160;20.910;2023-03-12T03:09:20;152.13;;;50.40;;
21170;SDS011;10743;52.160;20.910;2023-03-12T03:11:48;151.07;;;50.97;;
21170;SDS011;10743;52.160;20.910;2023-03-12T03:14:16;153.00;;;51.13;;
21170;SDS011;10743;52.160;20.910;2023-03-12T03:16:47;146.03;;;50.60;;
21170;SDS011;10743;52.160;20.910;2023-03-12T03:19:15;152.70;;;50.77;;
21170;SDS011;10743;52.160;20.910;2023-03-12T03:21:43;152.73;;;50.43;;
21170;SDS011;10743;52.160;20.910;2023-03-12T03:24:10;154.03;;;50.90;;
21170;SDS011;10743;52.160;20.910;2023-03-12T03:26:38;149.50;;;50.27;;
21170;SDS011;10743;52.160;20.910;2023-03-12T03:29:05;144.13;;;49.80;;
21170;SDS011;10743;52.160;20.910;2023-03-12T03:31:32;147.03;;;51.17;;
21170;SDS011;10743;52.160;20.910;2023-03-12T03:34:00;148.87;;;50.30;;
21170;SDS011;10743;52.160;20.910;2023-03-12T03:36:27;153.30;;;51.23;;
21170;SDS011;10743;52.160;20.910;2023-03-12T03:39:00;151.03;;;50.97;;
21170;SDS011;10743;52.160;20.910;2023-03-12T03:41:29;140.70;;;50.00;;
21170;SDS011;10743;52.160;20.910;2023-03-12T03:43:58;149.23;;;51.27;;
21170;SDS011;10743;52.160;20.910;2023-03-12T03:46:28;148.57;;;50.53;;
21170;SDS011;10743;52.160;20.910;2023-03-12T03:49:00;147.93;;;50.13;;
21170;SDS011;10743;52.160;20.910;2023-03-12T03:51:29;142.20;;;49.17;;
21170;SDS011;10743;52.160;20.910;2023-03-12T03:54:02;147.13;;;50.63;;
21170;SDS011;10743;52.160;20.910;2023-03-12T03:56:29;145.43;;;49.57;;
21170;SDS011;10743;52.160;20.910;2023-03-12T03:58:59;142.47;;;50.10;;
21170;SDS011;10743;52.160;20.910;2023-03-12T04:01:27;145.80;;;52.50;;
21170;SDS011;10743;52.160;20.910;2023-03-12T04:03:57;147.37;;;52.63;;
21170;SDS011;10743;52.160;20.910;2023-03-12T04:06:25;148.20;;;50.70;;
21170;SDS011;10743;52.160;20.910;2023-03-12T04:08:55;151.33;;;51.17;;
21170;SDS011;10743;52.160;20.910;2023-03-12T04:11:24;148.70;;;51.70;;
21170;SDS011;10743;52.160;20.910;2023-03-12T04:13:53;156.47;;;50.67;;
21170;SDS011;10743;52.160;20.910;2023-03-12T04:16:23;156.67;;;52.13;;
21170;SDS011;10743;52.160;20.910;2023-03-12T04:18:52;149.50;;;50.87;;
21170;SDS011;10743;52.160;20.910;2023-03-12T04:21:21;148.70;;;50.07;;
21170;SDS011;10743;52.160;20.910;2023-03-12T04:23:49;149.50;;;50.13;;
21170;SDS011;10743;52.160;20.910;2023-03-12T04:26:21;145.23;;;50.03;;
21170;SDS011;10743;52.160;20.910;2023-03-12T04:28:49;150.23;;;49.47;;
21170;SDS011;10743;52.160;20.910;2023-03-12T04:31:17;147.13;;;50.40;;
21170;SDS011;10743;52.160;20.910;2023-03-12T04:33:48;151.90;;;50.73;;
21170;SDS011;10743;52.160;20.910;2023-03-12T04:36:17;147.80;;;49.80;;
21170;SDS011;10743;52.160;20.910;2023-03-12T04:38:47;146.33;;;49.77;;
21170;SDS011;10743;52.160;20.910;2023-03-12T04:41:17;149.13;;;51.17;;
21170;SDS011;10743;52.160;20.910;2023-03-12T04:43:49;145.57;;;49.83;;
21170;SDS011;10743;52.160;20.910;2023-03-12T04:46:18;148.93;;;49.83;;
21170;SDS011;10743;52.160;20.910;2023-03-12T04:48:45;150.53;;;51.40;;
21170;SDS011;10743;52.160;20.910;2023-03-12T04:51:13;143.97;;;50.07;;
21170;SDS011;10743;52.160;20.910;2023-03-12T04:53:41;149.73;;;50.60;;
21170;SDS011;10743;52.160;20.910;2023-03-12T04:56:10;157.80;;;51.60;;
21170;SDS011;10743;52.160;20.910;2023-03-12T04:58:38;151.93;;;50.80;;
21170;SDS011;10743;52.160;20.910;2023-03-12T05:01:06;140.90;;;48.97;;
21170;SDS011;10743;52.160;20.910;2023-03-12T05:03:36;149.90;;;50.57;;
21170;SDS011;10743;52.160;20.910;2023-03-12T05:06:04;147.37;;;49.50;;
21170;SDS011;10743;52.160;20.910;2023-03-12T05:08:31;144.40;;;49.53;;
21170;SDS011;10743;52.160;20.910;2023-03-12T05:10:58;147.67;;;49.30;;
21170;SDS011;10743;52.160;20.910;2023-03-12T05:13:26;148.33;;;50.37;;
21170;SDS011;10743;52.160;20.910;2023-03-12T05:15:55;152.00;;;51.20;;
21170;SDS011;10743;52.160;20.910;2023-03-12T05:18:23;143.87;;;48.93;;
21170;SDS011;10743;52.160;20.910;2023-03-12T05:20:57;148.93;;;49.87;;
21170;SDS011;10743;52.160;20.910;2023-03-12T05:23:28;142.50;;;48.80;;
21170;SDS011;10743;52.160;20.910;2023-03-12T05:25:56;145.40;;;50.17;;
21170;SDS011;10743;52.160;20.910;2023-03-12T05:28:25;150.83;;;53.13;;
21170;SDS011;10743;52.160;20.910;2023-03-12T05:30:58;146.03;;;53.87;;
21170;SDS011;10743;52.160;20.910;2023-03-12T05:33:28;149.40;;;52.60;;
21170;SDS011;10743;52.160;20.910;2023-03-12T05:35:57;147.77;;;51.23;;
21170;SDS011;10743;52.160;20.910;2023-03-12T05:38:25;147.03;;;51.27;;
21170;SDS011;10743;52.160;20.910;2023-03-12T05:40:53;154.83;;;51.23;;
21170;SDS011;10743;52.160;20.910;2023-03-12T05:43:22;147.40;;;50.93;;
21170;SDS011;10743;52.160;20.910;2023-03-12T05:45:51;146.87;;;50.30;;
21170;SDS011;10743;52.160;20.910;2023-03-12T05:48:19;149.73;;;50.93;;
21170;SDS011;10743;52.160;20.910;2023-03-12T05:50:47;145.97;;;50.37;;
21170;SDS011;10743;52.160;20.910;2023-03-12T05:53:14;146.33;;;50.03;;
21170;SDS011;10743;52.160;20.910;2023-03-12T05:55:43;154.13;;;51.23;;
21170;SDS011;10743;52.160;20.910;2023-03-12T05:58:11;155.37;;;50.57;;
21170;SDS011;10743;52.160;20.910;2023-03-12T06:00:39;150.20;;;49.77;;
21170;SDS011;10743;52.160;20.910;2023-03-12T06:03:08;147.07;;;49.93;;
21170;SDS011;10743;52.160;20.910;2023-03-12T06:05:35;147.47;;;49.53;;
21170;SDS011;10743;52.160;20.910;2023-03-12T06:08:03;147.87;;;50.07;;
21170;SDS011;10743;52.160;20.910;2023-03-12T06:10:31;151.10;;;50.70;;
21170;SDS011;10743;52.160;20.910;2023-03-12T06:12:59;144.53;;;49.80;;
21170;SDS011;10743;52.160;20.910;2023-03-12T06:15:26;144.77;;;49.70;;
21170;SDS011;10743;52.160;20.910;2023-03-12T06:17:53;147.27;;;50.00;;
21170;SDS011;10743;52.160;20.910;2023-03-12T06:20:21;146.60;;;49.93;;
21170;SDS011;10743;52.160;20.910;2023-03-12T06:22:48;145.00;;;49.43;;
21170;SDS011;10743;52.160;20.910;2023-03-12T06:25:16;145.93;;;49.73;;
21170;SDS011;10743;52.160;20.910;2023-03-12T06:27:43;142.27;;;48.87;;
21170;SDS011;10743;52.160;20.910;2023-03-12T06:30:11;142.87;;;49.43;;
21170;SDS011;10743;52.160;20.910;2023-03-12T06:32:38;146.33;;;49.83;;
21170;SDS011;10743;52.160;20.910;2023-03-12T06:35:06;148.83;;;50.00;;
21170;SDS011;10743;52.160;20.910;2023-03-12T06:37:33;145.90;;;49.50;;
21170;SDS011;10743;52.160;20.910;2023-03-12T06:40:01;155.03;;;50.03;;
21170;SDS011;10743;52.160;20.910;2023-03-12T06:42:30;146.13;;;49.87;;
21170;SDS011;10743;52.160;20.910;2023-03-12T06:44:57;150.17;;;50.90;;
21170;SDS011;10743;52.160;20.910;2023-03-12T06:47:24;144.13;;;50.03;;
21170;SDS011;10743;52.160;20.910;2023-03-12T06:49:52;145.00;;;49.70;;
21170;SDS011;10743;52.160;20.910;2023-03-12T06:52:19;152.47;;;50.73;;
21170;SDS011;10743;52.160;20.910;2023-03-12T06:54:46;146.97;;;50.50;;
21170;SDS011;10743;52.160;20.910;2023-03-12T06:57:14;152.50;;;49.93;;
21170;SDS011;10743;52.160;20.910;2023-03-12T06:59:41;152.57;;;50.53;;
21170;SDS011;10743;52.160;20.910;2023-03-12T07:02:09;154.50;;;52.07;;
21170;SDS011;10743;52.160;20.910;2023-03-12T07:04:37;154.10;;;54.30;;
21170;SDS011;10743;52.160;20.910;2023-03-12T07:07:04;153.90;;;52.20;;
21170;SDS011;10743;52.160;20.910;2023-03-12T07:09:33;158.93;;;54.10;;
21170;SDS011;10743;52.160;20.910;2023-03-12T07:12:01;162.87;;;53.43;;
21170;SDS011;10743;52.160;20.910;2023-03-12T07:14:29;148.17;;;49.97;;
21170;SDS011;10743;52.160;20.910;2023-03-12T07:16:56;152.33;;;54.67;;
21170;SDS011;10743;52.160;20.910;2023-03-12T07:19:27;149.33;;;51.10;;
21170;SDS011;10743;52.160;20.910;2023-03-12T07:21:57;149.60;;;53.50;;
21170;SDS011;10743;52.160;20.910;2023-03-12T07:24:24;155.83;;;53.80;;
21170;SDS011;10743;52.160;20.910;2023-03-12T07:26:52;163.27;;;64.40;;
21170;SDS011;10743;52.160;20.910;2023-03-12T07:29:19;157.83;;;58.93;;
21170;SDS011;10743;52.160;20.910;2023-03-12T07:31:46;148.00;;;50.50;;
21170;SDS011;10743;52.160;20.910;2023-03-12T07:34:14;161.17;;;51.70;;
21170;SDS011;10743;52.160;20.910;2023-03-12T07:36:41;160.97;;;52.60;;
21170;SDS011;10743;52.160;20.910;2023-03-12T07:39:09;158.33;;;51.03;;
21170;SDS011;10743;52.160;20.910;2023-03-12T07:41:36;168.00;;;52.90;;
21170;SDS011;10743;52.160;20.910;2023-03-12T07:44:04;175.70;;;54.67;;
21170;SDS011;10743;52.160;20.910;2023-03-12T07:46:31;163.37;;;52.43;;
21170;SDS011;10743;52.160;20.910;2023-03-12T07:48:59;163.67;;;51.30;;
21170;SDS011;10743;52.160;20.910;2023-03-12T07:51:26;157.47;;;50.97;;
21170;SDS011;10743;52.160;20.910;2023-03-12T07:53:53;157.63;;;51.13;;
21170;SDS011;10743;52.160;20.910;2023-03-12T07:56:21;164.97;;;52.23;;
21170;SDS011;10743;52.160;20.910;2023-03-12T07:58:48;158.40;;;51.23;;
21170;SDS011;10743;52.160;20.910;2023-03-12T08:01:16;163.33;;;51.00;;
21170;SDS011;10743;52.160;20.910;2023-03-12T08:03:43;163.13;;;51.93;;
21170;SDS011;10743;52.160;20.910;2023-03-12T08:06:11;161.37;;;51.33;;
21170;SDS011;10743;52.160;20.910;2023-03-12T08:08:38;159.53;;;50.03;;
21170;SDS011;10743;52.160;20.910;2023-03-12T08:11:08;158.40;;;50.97;;
21170;SDS011;10743;52.160;20.910;2023-03-12T08:13:36;163.03;;;50.97;;
21170;SDS011;10743;52.160;20.910;2023-03-12T08:16:03;167.97;;;50.87;;
21170;SDS011;10743;52.160;20.910;2023-03-12T08:18:34;162.90;;;51.40;;
21170;SDS011;10743;52.160;20.910;2023-03-12T08:21:02;179.77;;;53.10;;
21170;SDS011;10743;52.160;20.910;2023-03-12T08:23:29;166.57;;;51.13;;
21170;SDS011;10743;52.160;20.910;2023-03-12T08:25:57;164.93;;;51.30;;
21170;SDS011;10743;52.160;20.910;2023-03-12T08:28:24;158.43;;;50.67;;
21170;SDS011;10743;52.160;20.910;2023-03-12T08:30:52;164.13;;;51.67;;
21170;SDS011;10743;52.160;20.910;2023-03-12T08:33:21;158.87;;;50.57;;
21170;SDS011;10743;52.160;20.910;2023-03-12T08:35:48;168.97;;;51.07;;
21170;SDS011;10743;52.160;20.910;2023-03-12T08:38:16;167.70;;;52.17;;
21170;SDS011;10743;52.160;20.910;2023-03-12T08:40:43;162.37;;;51.50;;
21170;SDS011;10743;52.160;20.910;2023-03-12T08:43:11;167.93;;;51.63;;
21170;SDS011;10743;52.160;20.910;2023-03-12T08:45:38;160.70;;;50.57;;
21170;SDS011;10743;52.160;20.910;2023-03-12T08:48:06;167.53;;;51.70;;
21170;SDS011;10743;52.160;20.910;2023-03-12T08:50:33;160.23;;;50.80;;
21170;SDS011;10743;52.160;20.910;2023-03-12T08:53:01;167.60;;;51.77;;
21170;SDS011;10743;52.160;20.910;2023-03-12T08:55:28;164.23;;;52.03;;
21170;SDS011;10743;52.160;20.910;2023-03-12T08:57:56;153.57;;;50.37;;
21170;SDS011;10743;52.160;20.910;2023-03-12T09:00:23;161.97;;;51.30;;
21170;SDS011;10743;52.160;20.910;2023-03-12T09:02:50;159.00;;;51.60;;
21170;SDS011;10743;52.160;20.910;2023-03-12T09:05:19;160.97;;;49.77;;
21170;SDS011;10743;52.160;20.910;2023-03-12T09:07:46;167.83;;;50.87;;
21170;SDS011;10743;52.160;20.910;2023-03-12T09:10:15;168.93;;;50.67;;
21170;SDS011;10743;52.160;20.910;2023-03-12T09:12:43;166.47;;;52.90;;
21170;SDS011;10743;52.160;20.910;2023-03-12T09:15:10;163.57;;;50.93;;
21170;SDS011;10743;52.160;20.910;2023-03-12T09:17:37;164.33;;;50.40;;
21170;SDS011;10743;52.160;20.910;2023-03-12T09:20:05;165.33;;;51.67;;
21170;SDS011;10743;52.160;20.910;2023-03-12T09:22:35;164.47;;;50.10;;
21170;SDS011;10743;52.160;20.910;2023-03-12T09:25:03;175.43;;;52.57;;
21170;SDS011;10743;52.160;20.910;2023-03-12T09:27:41;166.00;;;51.87;;
21170;SDS011;10743;52.160;20.910;2023-03-12T09:30:14;173.43;;;52.47;;
21170;SDS011;10743;52.160;20.910;2023-03-12T09:32:44;168.60;;;50.80;;
21170;SDS011;10743;52.160;20.910;2023-03-12T09:35:12;174.73;;;56.80;;
21170;SDS011;10743;52.160;20.910;2023-03-12T09:37:41;166.27;;;50.33;;
21170;SDS011;10743;52.160;20.910;2023-03-12T09:40:10;162.17;;;50.37;;
21170;SDS011;10743;52.160;20.910;2023-03-12T09:42:55;168.43;;;52.83;;
21170;SDS011;10743;52.160;20.910;2023-03-12T09:45:40;162.33;;;51.57;;
21170;SDS011;10743;52.160;20.910;2023-03-12T09:48:13;169.50;;;53.83;;
21170;SDS011;10743;52.160;20.910;2023-03-12T09:50:53;164.43;;;52.30;;
21170;SDS011;10743;52.160;20.910;2023-03-12T09:53:32;171.70;;;53.30;;
21170;SDS011;10743;52.160;20.910;2023-03-12T09:56:09;176.87;;;52.87;;
21170;SDS011;10743;52.160;20.910;2023-03-12T09:58:41;177.90;;;54.00;;
21170;SDS011;10743;52.160;20.910;2023-03-12T10:04:05;169.83;;;51.33;;
21170;SDS011;10743;52.160;20.910;2023-03-12T10:17:22;160.67;;;52.30;;
21170;SDS011;10743;52.160;20.910;2023-03-12T10:28:24;161.00;;;50.77;;
21170;SDS011;10743;52.160;20.910;2023-03-12T10:31:05;155.83;;;50.50;;
21170;SDS011;10743;52.160;20.910;2023-03-12T10:34:00;156.23;;;50.83;;
21170;SDS011;10743;52.160;20.910;2023-03-12T10:36:33;160.77;;;50.50;;
21170;SDS011;10743;52.160;20.910;2023-03-12T10:39:09;162.43;;;50.83;;
21170;SDS011;10743;52.160;20.910;2023-03-12T10:41:42;163.23;;;50.87;;
21170;SDS011;10743;52.160;20.910;2023-03-12T10:44:21;160.07;;;50.30;;
21170;SDS011;10743;52.160;20.910;2023-03-12T10:49:48;158.83;;;49.63;;
21170;SDS011;10743;52.160;20.910;2023-03-12T10:52:17;171.67;;;50.87;;
21170;SDS011;10743;52.160;20.910;2023-03-12T10:54:48;165.30;;;53.27;;
21170;SDS011;10743;52.160;20.910;2023-03-12T10:57:18;162.73;;;52.00;;
21170;SDS011;10743;52.160;20.910;2023-03-12T10:59:46;162.87;;;52.83;;
21170;SDS011;10743;52.160;20.910;2023-03-12T11:05:25;180.10;;;54.00;;
21170;SDS011;10743;52.160;20.910;2023-03-12T11:08:27;173.37;;;54.33;;
21170;SDS011;10743;52.160;20.910;2023-03-12T11:11:03;171.17;;;55.27;;
21170;SDS011;10743;52.160;20.910;2023-03-12T11:13:34;170.90;;;50.63;;
21170;SDS011;10743;52.160;20.910;2023-03-12T11:19:01;196.77;;;55.57;;
21170;SDS011;10743;52.160;20.910;2023-03-12T11:21:31;179.27;;;54.40;;
21170;SDS011;10743;52.160;20.910;2023-03-12T11:24:09;175.07;;;54.63;;
21170;SDS011;10743;52.160;20.910;2023-03-12T11:29:29;173.20;;;52.03;;
21170;SDS011;10743;52.160;20.910;2023-03-12T11:34:53;173.50;;;52.17;;
21170;SDS011;10743;52.160;20.910;2023-03-12T11:37:24;168.50;;;52.00;;
21170;SDS011;10743;52.160;20.910;2023-03-12T11:40:16;174.03;;;55.10;;
21170;SDS011;10743;52.160;20.910;2023-03-12T11:52:54;171.13;;;53.33;;
21170;SDS011;10743;52.160;20.910;2023-03-12T12:08:24;185.27;;;52.80;;
21170;SDS011;10743;52.160;20.910;2023-03-12T12:17:54;173.10;;;51.93;;
21170;SDS011;10743;52.160;20.910;2023-03-12T12:21:00;162.13;;;50.10;;
21170;SDS011;10743;52.160;20.910;2023-03-12T12:26:39;172.20;;;51.37;;
21170;SDS011;10743;52.160;20.910;2023-03-12T12:32:26;171.00;;;53.47;;
21170;SDS011;10743;52.160;20.910;2023-03-12T12:40:34;171.63;;;51.97;;
21170;SDS011;10743;52.160;20.910;2023-03-12T12:45:59;171.60;;;51.50;;
21170;SDS011;10743;52.160;20.910;2023-03-12T12:48:51;177.30;;;57.97;;
21170;SDS011;10743;52.160;20.910;2023-03-12T12:51:26;180.47;;;62.17;;
21170;SDS011;10743;52.160;20.910;2023-03-12T12:56:32;166.20;;;51.00;;
21170;SDS011;10743;52.160;20.910;2023-03-12T12:59:48;174.97;;;53.63;;
21170;SDS011;10743;52.160;20.910;2023-03-12T13:02:44;169.00;;;51.17;;
21170;SDS011;10743;52.160;20.910;2023-03-12T13:08:04;169.17;;;51.40;;
21170;SDS011;10743;52.160;20.910;2023-03-12T13:13:17;169.90;;;52.20;;
21170;SDS011;10743;52.160;20.910;2023-03-12T13:15:47;172.13;;;51.70;;
21170;SDS011;10743;52.160;20.910;2023-03-12T13:18:24;175.73;;;52.77;;
21170;SDS011;10743;52.160;20.910;2023-03-12T13:24:04;172.40;;;50.73;;
21170;SDS011;10743;52.160;20.910;2023-03-12T13:31:56;180.33;;;54.33;;
21170;SDS011;10743;52.160;20.910;2023-03-12T13:36:58;169.77;;;52.03;;
21170;SDS011;10743;52.160;20.910;2023-03-12T13:39:34;166.27;;;50.63;;
21170;SDS011;10743;52.160;20.910;2023-03-12T13:42:24;168.67;;;51.63;;
21170;SDS011;10743;52.160;20.910;2023-03-12T13:44:49;164.43;;;51.07;;
21170;SDS011;10743;52.160;20.910;2023-03-12T13:47:28;165.23;;;50.27;;
21170;SDS011;10743;52.160;20.910;2023-03-12T13:49:57;168.30;;;51.60;;
21170;SDS011;10743;52.160;20.910;2023-03-12T13:52:49;177.77;;;53.40;;
21170;SDS011;10743;52.160;20.910;2023-03-12T13:55:32;292.87;;;178.00;;
21170;SDS011;10743;52.160;20.910;2023-03-12T14:00:54;182.53;;;52.00;;
21170;SDS011;10743;52.160;20.910;2023-03-12T14:16:54;184.07;;;53.57;;
21170;SDS011;10743;52.160;20.910;2023-03-12T14:19:30;183.60;;;53.50;;
21170;SDS011;10743;52.160;20.910;2023-03-12T14:22:01;179.53;;;52.13;;
21170;SDS011;10743;52.160;20.910;2023-03-12T14:24:38;180.13;;;52.03;;
21170;SDS011;10743;52.160;20.910;2023-03-12T14:27:14;177.47;;;52.03;;
21170;SDS011;10743;52.160;20.910;2023-03-12T14:29:47;177.97;;;51.63;;
21170;SDS011;10743;52.160;20.910;2023-03-12T14:32:22;179.60;;;52.20;;
21170;SDS011;10743;52.160;20.910;2023-03-12T14:35:01;178.90;;;52.17;;
21170;SDS011;10743;52.160;20.910;2023-03-12T14:40:41;174.63;;;51.93;;
21170;SDS011;10743;52.160;20.910;2023-03-12T14:43:40;191.40;;;56.20;;
21170;SDS011;10743;52.160;20.910;2023-03-12T14:46:13;179.00;;;53.27;;
21170;SDS011;10743;52.160;20.910;2023-03-12T14:48:47;171.50;;;53.17;;
21170;SDS011;10743;52.160;20.910;2023-03-12T14:51:27;172.10;;;53.07;;
21170;SDS011;10743;52.160;20.910;2023-03-12T14:54:01;185.13;;;64.53;;
21170;SDS011;10743;52.160;20.910;2023-03-12T14:56:32;179.50;;;53.10;;
21170;SDS011;10743;52.160;20.910;2023-03-12T14:59:03;189.23;;;61.63;;
21170;SDS011;10743;52.160;20.910;2023-03-12T15:01:49;171.27;;;51.47;;
21170;SDS011;10743;52.160;20.910;2023-03-12T15:04:18;180.47;;;53.67;;
21170;SDS011;10743;52.160;20.910;2023-03-12T15:09:23;173.37;;;51.33;;
21170;SDS011;10743;52.160;20.910;2023-03-12T15:11:56;176.93;;;51.53;;
21170;SDS011;10743;52.160;20.910;2023-03-12T15:14:29;181.30;;;54.43;;
21170;SDS011;10743;52.160;20.910;2023-03-12T15:17:06;172.63;;;52.03;;
21170;SDS011;10743;52.160;20.910;2023-03-12T15:19:35;186.73;;;65.63;;
21170;SDS011;10743;52.160;20.910;2023-03-12T15:22:06;188.00;;;53.37;;
21170;SDS011;10743;52.160;20.910;2023-03-12T15:24:40;180.53;;;52.73;;
21170;SDS011;10743;52.160;20.910;2023-03-12T15:27:17;178.50;;;55.33;;
21170;SDS011;10743;52.160;20.910;2023-03-12T15:29:54;180.87;;;56.20;;
21170;SDS011;10743;52.160;20.910;2023-03-12T15:32:23;177.87;;;54.60;;
21170;SDS011;10743;52.160;20.910;2023-03-12T15:34:52;182.13;;;55.30;;
21170;SDS011;10743;52.160;20.910;2023-03-12T15:37:28;329.93;;;76.53;;
21170;SDS011;10743;52.160;20.910;2023-03-12T15:40:00;182.73;;;55.07;;
21170;SDS011;10743;52.160;20.910;2023-03-12T15:42:36;176.40;;;55.27;;
21170;SDS011;10743;52.160;20.910;2023-03-12T15:45:20;173.67;;;56.13;;
21170;SDS011;10743;52.160;20.910;2023-03-12T15:47:52;183.93;;;56.17;;
21170;SDS011;10743;52.160;20.910;2023-03-12T15:50:30;190.93;;;55.17;;
21170;SDS011;10743;52.160;20.910;2023-03-12T15:55:39;183.07;;;53.80;;
21170;SDS011;10743;52.160;20.910;2023-03-12T15:58:26;171.80;;;53.43;;
21170;SDS011;10743;52.160;20.910;2023-03-12T16:01:16;170.47;;;52.53;;
21170;SDS011;10743;52.160;20.910;2023-03-12T16:03:53;180.97;;;54.77;;
21170;SDS011;10743;52.160;20.910;2023-03-12T16:06:21;170.73;;;53.10;;
21170;SDS011;10743;52.160;20.910;2023-03-12T16:08:59;169.87;;;53.17;;
21170;SDS011;10743;52.160;20.910;2023-03-12T16:11:30;191.33;;;67.73;;
21170;SDS011;10743;52.160;20.910;2023-03-12T16:14:03;199.70;;;59.60;;
21170;SDS011;10743;52.160;20.910;2023-03-12T16:16:38;206.50;;;56.43;;
21170;SDS011;10743;52.160;20.910;2023-03-12T16:19:10;200.07;;;56.00;;
21170;SDS011;10743;52.160;20.910;2023-03-12T16:21:39;211.30;;;61.83;;
21170;SDS011;10743;52.160;20.910;2023-03-12T16:24:06;188.57;;;57.03;;
21170;SDS011;10743;52.160;20.910;2023-03-12T16:26:34;191.47;;;60.43;;
21170;SDS011;10743;52.160;20.910;2023-03-12T16:29:15;186.33;;;57.50;;